Time,TemperatureF,DewpointF,PressureIn,WindDirection,WindDirectionDegrees,WindSpeedMPH,WindSpeedGustMPH,Humidity,HourlyPrecipIn,Conditions,Clouds,dailyrainin,SoftwareType,DateUTC
2013-01-10 07:45:00,41.7,28.4,30.13,NW,316,0.0,0.0,59,0.00,,SKC,0.00,VWS V13.01,2013-01-10 12:45:00,
2013-01-10 07:50:00,33.8,23.7,30.54,WSW,248,0.0,0.0,66,0.00,,SKC,0.00,VWS V13.01,2013-01-10 12:50:00,
2013-01-10 07:55:00,34.1,24.0,30.54,West,271,0.0,0.0,66,0.00,,SKC,0.00,VWS V13.01,2013-01-10 12:55:00,
2013-01-10 08:00:00,34.3,24.1,30.55,West,271,0.0,0.0,66,0.00,,SKC,0.00,VWS V13.01,2013-01-10 13:00:00,
2013-01-10 08:05:00,34.3,24.1,30.55,West,271,0.0,0.0,66,0.00,,SKC,0.00,VWS V13.01,2013-01-10 13:05:00,
2013-01-10 08:10:00,34.8,24.6,30.55,West,271,0.0,0.0,66,0.00,,SKC,0.00,VWS V13.01,2013-01-10 13:10:00,
2013-01-10 08:15:00,35.2,24.6,30.55,NW,316,0.0,0.0,65,0.00,,SKC,0.00,VWS V13.01,2013-01-10 13:15:00,
2013-01-10 08:20:00,35.7,25.1,30.55,NW,316,0.0,0.0,65,0.00,,SKC,0.00,VWS V13.01,2013-01-10 13:20:00,
2013-01-10 08:25:00,35.9,25.3,30.55,NW,316,0.0,0.0,65,0.00,,SKC,0.00,VWS V13.01,2013-01-10 13:25:00,
2013-01-10 08:30:00,36.1,25.5,30.55,NW,316,0.0,0.0,65,0.00,,SKC,0.00,VWS V13.01,2013-01-10 13:30:00,
2013-01-10 08:35:00,36.5,25.9,30.55,WNW,294,0.0,0.0,65,0.00,,SKC,0.00,VWS V13.01,2013-01-10 13:35:00,
2013-01-10 08:40:00,36.6,25.6,30.55,NW,316,0.0,0.0,64,0.00,,SKC,0.00,VWS V13.01,2013-01-10 13:40:00,
2013-01-10 08:45:00,36.6,25.2,30.55,NW,316,0.0,1.3,63,0.00,,SKC,0.00,VWS V13.01,2013-01-10 13:45:00,
2013-01-10 08:50:00,36.6,25.2,30.55,NW,316,0.0,0.0,63,0.00,,SKC,0.00,VWS V13.01,2013-01-10 13:50:00,
2013-01-10 09:12:00,37.4,25.2,30.57,NW,316,0.0,0.0,61,0.00,,SKC,0.00,VWS V13.01,2013-01-10 14:12:00,
2013-01-10 09:17:00,37.5,24.9,30.57,NNW,338,5.3,5.3,60,0.00,,SKC,0.00,VWS V13.01,2013-01-10 14:17:00,
2013-01-10 09:22:00,37.7,25.1,30.57,North,1,1.5,1.5,60,0.00,,SKC,0.00,VWS V13.01,2013-01-10 14:22:00,
2013-01-10 09:27:00,37.9,25.3,30.58,NNW,338,0.0,0.0,60,0.00,,SKC,0.00,VWS V13.01,2013-01-10 14:27:00,
2013-01-10 09:32:00,37.9,24.9,30.58,NNW,338,1.7,1.7,59,0.00,,SKC,0.00,VWS V13.01,2013-01-10 14:32:00,
2013-01-10 09:37:00,38.1,25.1,30.59,North,1,0.6,0.6,59,0.00,,SKC,0.00,VWS V13.01,2013-01-10 14:37:00,
2013-01-10 09:42:00,38.1,25.1,30.58,WNW,294,6.4,6.4,59,0.00,,SKC,0.00,VWS V13.01,2013-01-10 14:42:00,
2013-01-10 09:47:00,38.3,25.2,30.59,North,1,0.0,0.0,59,0.00,,SKC,0.00,VWS V13.01,2013-01-10 14:47:00,
2013-01-10 09:53:00,38.3,25.2,30.59,NNE,24,0.0,0.0,59,0.00,,SKC,0.00,VWS V13.01,2013-01-10 14:53:00,
2013-01-10 09:58:00,38.4,24.9,30.59,North,1,0.6,0.6,58,0.00,,SKC,0.00,VWS V13.01,2013-01-10 14:58:00,
2013-01-10 10:03:00,38.4,24.5,30.59,NNW,338,1.5,1.5,57,0.00,,SKC,0.00,VWS V13.01,2013-01-10 15:03:00,
2013-01-10 10:08:00,38.8,24.9,30.60,NNW,338,3.5,3.5,57,0.00,,SKC,0.00,VWS V13.01,2013-01-10 15:08:00,
2013-01-10 10:13:00,38.8,24.9,30.60,NNE,24,3.3,3.3,57,0.00,,SKC,0.00,VWS V13.01,2013-01-10 15:13:00,
2013-01-10 10:18:00,39.0,25.1,30.60,NNE,24,1.3,1.3,57,0.00,,SKC,0.00,VWS V13.01,2013-01-10 15:18:00,
2013-01-10 10:23:00,39.0,25.1,30.60,NNW,338,0.0,0.0,57,0.00,,SKC,0.00,VWS V13.01,2013-01-10 15:23:00,
2013-01-10 10:28:00,39.0,25.1,30.61,SSW,204,0.0,0.0,57,0.00,,SKC,0.00,VWS V13.01,2013-01-10 15:28:00,
2013-01-10 10:33:00,39.0,24.6,30.60,ENE,68,2.6,2.6,56,0.00,,SKC,0.00,VWS V13.01,2013-01-10 15:33:00,
2013-01-10 10:38:00,39.0,25.1,30.60,NNW,338,2.0,2.0,57,0.00,,SKC,0.00,VWS V13.01,2013-01-10 15:38:00,
2013-01-10 10:43:00,39.0,25.1,30.61,NW,316,2.2,2.2,57,0.00,,SKC,0.00,VWS V13.01,2013-01-10 15:43:00,
2013-01-10 10:48:00,39.2,25.3,30.61,North,1,0.0,0.0,57,0.00,,SKC,0.00,VWS V13.01,2013-01-10 15:48:00,
2013-01-10 10:53:00,39.3,25.4,30.61,North,1,0.0,0.0,57,0.00,,SKC,0.00,VWS V13.01,2013-01-10 15:53:00,
2013-01-10 10:58:00,39.3,25.4,30.61,NNW,338,6.0,6.0,57,0.00,,SKC,0.00,VWS V13.01,2013-01-10 15:58:00,
2013-01-10 11:03:00,39.3,25.4,30.61,WSW,248,0.0,0.0,57,0.00,,SKC,0.00,VWS V13.01,2013-01-10 16:03:00,
2013-01-10 11:08:00,39.3,25.4,30.61,NW,316,0.0,0.0,57,0.00,,SKC,0.00,VWS V13.01,2013-01-10 16:08:00,
2013-01-10 11:13:00,39.3,25.4,30.61,NNW,338,0.8,0.8,57,0.00,,SKC,0.00,VWS V13.01,2013-01-10 16:13:00,
2013-01-10 11:18:00,39.3,25.4,30.60,WNW,294,5.1,5.1,57,0.00,,SKC,0.00,VWS V13.01,2013-01-10 16:18:00,
2013-01-10 11:23:00,39.2,25.3,30.60,North,1,0.0,0.0,57,0.00,,SKC,0.00,VWS V13.01,2013-01-10 16:23:00,
2013-01-10 11:28:00,39.3,25.4,30.60,North,1,0.0,0.0,57,0.00,,SKC,0.00,VWS V13.01,2013-01-10 16:28:00,
2013-01-10 11:33:00,39.3,25.4,30.60,NNW,338,0.6,0.6,57,0.00,,SKC,0.00,VWS V13.01,2013-01-10 16:33:00,
2013-01-10 11:38:00,39.5,25.5,30.60,NNW,338,0.0,0.0,57,0.00,,SKC,0.00,VWS V13.01,2013-01-10 16:38:00,
2013-01-10 11:43:00,39.5,25.5,30.60,NNW,338,0.0,0.0,57,0.00,,SKC,0.00,VWS V13.01,2013-01-10 16:43:00,
2013-01-10 11:48:00,39.5,25.1,30.60,WNW,294,6.2,6.2,56,0.00,,SKC,0.00,VWS V13.01,2013-01-10 16:48:00,
2013-01-10 11:53:00,39.5,25.5,30.60,NW,316,2.0,2.0,57,0.00,,SKC,0.00,VWS V13.01,2013-01-10 16:53:00,
2013-01-10 11:58:00,39.5,25.5,30.60,NW,316,6.4,6.4,57,0.00,,SKC,0.00,VWS V13.01,2013-01-10 16:58:00,
2013-01-10 12:03:00,39.7,25.3,30.60,North,1,4.0,4.0,56,0.00,,SKC,0.00,VWS V13.01,2013-01-10 17:03:00,
2013-01-10 12:08:00,39.7,25.3,30.60,NNW,338,0.0,0.0,56,0.00,,SKC,0.00,VWS V13.01,2013-01-10 17:08:00,
2013-01-10 12:13:00,39.9,25.9,30.60,NNW,338,4.9,4.9,57,0.00,,SKC,0.00,VWS V13.01,2013-01-10 17:13:00,
2013-01-10 12:18:00,39.9,25.5,30.60,North,1,6.7,6.7,56,0.00,,SKC,0.00,VWS V13.01,2013-01-10 17:18:00,
2013-01-10 12:23:00,40.1,25.7,30.60,NNW,338,6.0,6.0,56,0.00,,SKC,0.00,VWS V13.01,2013-01-10 17:23:00,
2013-01-10 12:28:00,40.1,25.2,30.60,North,1,7.1,7.1,55,0.00,,SKC,0.00,VWS V13.01,2013-01-10 17:28:00,
2013-01-10 12:33:00,40.2,25.3,30.59,NNW,338,0.2,0.2,55,0.00,,SKC,0.00,VWS V13.01,2013-01-10 17:33:00,
2013-01-10 12:38:00,40.1,25.2,30.59,North,1,2.6,2.6,55,0.00,,SKC,0.00,VWS V13.01,2013-01-10 17:38:00,
2013-01-10 12:43:00,39.9,24.6,30.59,NNE,24,6.2,6.2,54,0.00,,SKC,0.00,VWS V13.01,2013-01-10 17:43:00,
2013-01-10 12:48:00,39.7,24.9,30.59,NNE,24,0.0,0.0,55,0.00,,SKC,0.00,VWS V13.01,2013-01-10 17:48:00,
2013-01-10 12:53:00,39.9,25.1,30.60,NNW,338,0.0,0.0,55,0.00,,SKC,0.00,VWS V13.01,2013-01-10 17:53:00,
2013-01-10 12:58:00,39.7,24.9,30.60,NNW,338,0.0,0.0,55,0.00,,SKC,0.00,VWS V13.01,2013-01-10 17:58:00,
2013-01-10 13:03:00,39.7,24.9,30.60,NE,46,0.0,0.0,55,0.00,,SKC,0.00,VWS V13.01,2013-01-10 18:03:00,
2013-01-10 13:08:00,39.9,25.1,30.60,NNW,338,4.6,4.6,55,0.00,,SKC,0.00,VWS V13.01,2013-01-10 18:08:00,
2013-01-10 13:13:00,40.1,25.2,30.60,NE,46,0.0,0.0,55,0.00,,SKC,0.00,VWS V13.01,2013-01-10 18:13:00,
2013-01-10 13:18:00,40.2,25.3,30.60,NNW,338,2.9,2.9,55,0.00,,SKC,0.00,VWS V13.01,2013-01-10 18:18:00,
2013-01-10 13:23:00,40.1,25.2,30.60,NNW,338,5.1,5.1,55,0.00,,SKC,0.00,VWS V13.01,2013-01-10 18:23:00,
2013-01-10 13:28:00,40.1,25.2,30.60,NW,316,0.0,0.0,55,0.00,,SKC,0.00,VWS V13.01,2013-01-10 18:28:00,
2013-01-10 13:33:00,40.1,25.2,30.60,North,1,3.1,3.1,55,0.00,,SKC,0.00,VWS V13.01,2013-01-10 18:33:00,
2013-01-10 13:38:00,40.1,25.2,30.60,NNW,338,6.7,6.7,55,0.00,,SKC,0.00,VWS V13.01,2013-01-10 18:38:00,
2013-01-10 13:43:00,40.1,25.2,30.60,NNW,338,5.5,5.5,55,0.00,,SKC,0.00,VWS V13.01,2013-01-10 18:43:00,
2013-01-10 13:48:00,39.9,25.1,30.61,NNE,24,7.3,7.3,55,0.00,,SKC,0.00,VWS V13.01,2013-01-10 18:48:00,
2013-01-10 13:53:00,39.9,25.1,30.61,North,1,1.1,1.1,55,0.00,,SKC,0.00,VWS V13.01,2013-01-10 18:53:00,
2013-01-10 13:58:00,39.9,25.1,30.61,NW,316,0.0,0.0,55,0.00,,SKC,0.00,VWS V13.01,2013-01-10 18:58:00,
2013-01-10 14:03:00,39.9,25.1,30.61,NW,316,0.0,0.0,55,0.00,,SKC,0.00,VWS V13.01,2013-01-10 19:03:00,
2013-01-10 14:08:00,39.9,25.1,30.62,NE,46,0.0,0.0,55,0.00,,SKC,0.00,VWS V13.01,2013-01-10 19:08:00,
2013-01-10 14:13:00,39.9,25.5,30.62,NNE,24,0.0,0.0,56,0.00,,SKC,0.00,VWS V13.01,2013-01-10 19:13:00,
2013-01-10 14:18:00,39.7,25.3,30.62,NNW,338,0.0,0.0,56,0.00,,SKC,0.00,VWS V13.01,2013-01-10 19:18:00,
2013-01-10 14:23:00,39.7,25.7,30.62,North,1,0.0,0.0,57,0.00,,SKC,0.00,VWS V13.01,2013-01-10 19:23:00,
2013-01-10 14:28:00,39.5,25.5,30.62,NW,316,0.0,0.0,57,0.00,,SKC,0.00,VWS V13.01,2013-01-10 19:28:00,
2013-01-10 14:33:00,39.3,25.4,30.62,NE,46,3.1,3.1,57,0.00,,SKC,0.00,VWS V13.01,2013-01-10 19:33:00,
2013-01-10 14:38:00,39.3,25.4,30.63,NE,46,0.0,0.0,57,0.00,,SKC,0.00,VWS V13.01,2013-01-10 19:38:00,
2013-01-10 14:43:00,39.3,25.4,30.63,NNE,24,3.1,3.1,57,0.00,,SKC,0.00,VWS V13.01,2013-01-10 19:43:00,
2013-01-10 14:48:00,39.3,25.4,30.63,NNE,24,0.0,0.0,57,0.00,,SKC,0.00,VWS V13.01,2013-01-10 19:48:00,
2013-01-10 14:53:00,39.3,25.4,30.63,ENE,68,0.0,0.0,57,0.00,,SKC,0.00,VWS V13.01,2013-01-10 19:53:00,
2013-01-10 14:58:00,39.0,25.5,30.63,ENE,68,0.0,0.0,58,0.00,,SKC,0.00,VWS V13.01,2013-01-10 19:58:00,
2013-01-10 15:03:00,39.2,25.7,30.64,SE,136,0.0,0.0,58,0.00,,SKC,0.00,VWS V13.01,2013-01-10 20:03:00,
2013-01-10 15:08:00,39.0,25.5,30.64,NE,46,0.0,0.0,58,0.00,,SKC,0.00,VWS V13.01,2013-01-10 20:08:00,
2013-01-10 15:13:00,39.0,25.5,30.65,NW,316,0.6,0.6,58,0.00,,SKC,0.00,VWS V13.01,2013-01-10 20:13:00,
2013-01-10 15:18:00,38.8,25.3,30.65,NE,46,0.0,0.0,58,0.00,,SKC,0.00,VWS V13.01,2013-01-10 20:18:00,
2013-01-10 15:23:00,38.8,25.7,30.65,NW,316,0.0,0.0,59,0.00,,SKC,0.00,VWS V13.01,2013-01-10 20:23:00,
2013-01-10 15:28:00,38.4,25.3,30.65,NE,46,0.0,0.0,59,0.00,,SKC,0.00,VWS V13.01,2013-01-10 20:28:00,
2013-01-10 15:33:00,38.3,25.2,30.65,North,1,4.9,4.9,59,0.00,,SKC,0.00,VWS V13.01,2013-01-10 20:33:00,
2013-01-10 15:38:00,38.1,25.1,30.65,NE,46,0.0,1.1,59,0.00,,SKC,0.00,VWS V13.01,2013-01-10 20:38:00,
2013-01-10 15:43:00,37.9,24.9,30.65,ENE,68,0.0,0.0,59,0.00,,SKC,0.00,VWS V13.01,2013-01-10 20:43:00,
2013-01-10 15:48:00,37.9,24.9,30.66,ENE,68,0.0,0.0,59,0.00,,SKC,0.00,VWS V13.01,2013-01-10 20:48:00,
2013-01-10 15:53:00,37.7,24.7,30.66,ENE,68,0.0,0.0,59,0.00,,SKC,0.00,VWS V13.01,2013-01-10 20:53:00,
2013-01-10 15:58:00,37.5,24.9,30.66,NE,46,0.0,0.0,60,0.00,,SKC,0.00,VWS V13.01,2013-01-10 20:58:00,
2013-01-10 16:03:00,37.2,24.6,30.66,NNE,24,0.0,0.0,60,0.00,,SKC,0.00,VWS V13.01,2013-01-10 21:03:00,
2013-01-10 16:08:00,37.2,25.0,30.66,North,1,2.0,2.0,61,0.00,,SKC,0.00,VWS V13.01,2013-01-10 21:08:00,
2013-01-10 16:13:00,37.0,24.8,30.66,NE,46,0.0,0.0,61,0.00,,SKC,0.00,VWS V13.01,2013-01-10 21:13:00,
2013-01-10 16:18:00,36.8,24.6,30.66,NE,46,0.0,0.0,61,0.00,,SKC,0.00,VWS V13.01,2013-01-10 21:18:00,
2013-01-10 16:23:00,36.6,24.4,30.67,NE,46,0.0,0.0,61,0.00,,SKC,0.00,VWS V13.01,2013-01-10 21:23:00,
2013-01-10 16:28:00,36.3,24.1,30.67,ESE,114,0.0,0.0,61,0.00,,SKC,0.00,VWS V13.01,2013-01-10 21:28:00,
2013-01-10 16:33:00,36.3,24.1,30.67,ESE,114,0.0,0.0,61,0.00,,SKC,0.00,VWS V13.01,2013-01-10 21:33:00,
2013-01-10 16:38:00,35.9,23.8,30.67,NE,46,0.0,0.0,61,0.00,,SKC,0.00,VWS V13.01,2013-01-10 21:38:00,
2013-01-10 16:43:00,35.7,24.0,30.67,NE,46,0.0,0.0,62,0.00,,SKC,0.00,VWS V13.01,2013-01-10 21:43:00,
2013-01-10 16:48:00,35.4,23.7,30.67,NE,46,0.0,0.0,62,0.00,,SKC,0.00,VWS V13.01,2013-01-10 21:48:00,
2013-01-10 16:53:00,35.2,23.5,30.67,NE,46,0.0,0.0,62,0.00,,SKC,0.00,VWS V13.01,2013-01-10 21:53:00,
2013-01-10 16:58:00,35.2,23.9,30.67,NNE,24,0.0,0.0,63,0.00,,SKC,0.00,VWS V13.01,2013-01-10 21:58:00,
2013-01-10 17:03:00,34.8,23.5,30.68,NNE,24,0.0,0.0,63,0.00,,SKC,0.00,VWS V13.01,2013-01-10 22:03:00,
2013-01-10 17:08:00,34.7,23.4,30.67,NNE,24,0.0,0.0,63,0.00,,SKC,0.00,VWS V13.01,2013-01-10 22:08:00,
2013-01-10 17:13:00,34.5,23.2,30.68,ESE,114,0.0,0.0,63,0.00,,SKC,0.00,VWS V13.01,2013-01-10 22:13:00,
2013-01-10 17:18:00,34.5,23.2,30.68,East,91,0.0,0.8,63,0.00,,SKC,0.00,VWS V13.01,2013-01-10 22:18:00,
2013-01-10 17:23:00,34.3,23.0,30.68,ENE,68,0.0,0.0,63,0.00,,SKC,0.00,VWS V13.01,2013-01-10 22:23:00,
2013-01-10 17:28:00,34.3,23.4,30.68,NE,46,0.0,0.0,64,0.00,,SKC,0.00,VWS V13.01,2013-01-10 22:28:00,
2013-01-10 17:33:00,34.1,23.2,30.68,NE,46,0.0,0.0,64,0.00,,SKC,0.00,VWS V13.01,2013-01-10 22:33:00,
2013-01-10 17:38:00,33.9,23.4,30.68,NE,46,0.0,0.0,65,0.00,,SKC,0.00,VWS V13.01,2013-01-10 22:38:00,
2013-01-10 17:43:00,33.9,23.4,30.69,NE,46,0.0,0.0,65,0.00,,SKC,0.00,VWS V13.01,2013-01-10 22:43:00,
2013-01-10 17:48:00,34.1,23.6,30.69,ENE,68,0.0,0.0,65,0.00,,SKC,0.00,VWS V13.01,2013-01-10 22:48:00,
2013-01-10 17:53:00,34.1,23.6,30.69,ENE,68,0.0,0.0,65,0.00,,SKC,0.00,VWS V13.01,2013-01-10 22:53:00,
2013-01-10 17:58:00,33.9,23.4,30.69,NNE,24,0.0,0.0,65,0.00,,SKC,0.00,VWS V13.01,2013-01-10 22:58:00,
2013-01-10 18:03:00,33.6,23.1,30.68,NE,46,0.0,0.0,65,0.00,,SKC,0.00,VWS V13.01,2013-01-10 23:03:00,
2013-01-10 18:08:00,33.4,23.3,30.68,NE,46,0.0,0.0,66,0.00,,SKC,0.00,VWS V13.01,2013-01-10 23:08:00,
2013-01-10 18:13:00,33.0,22.9,30.68,NE,46,0.0,0.0,66,0.00,,SKC,0.00,VWS V13.01,2013-01-10 23:13:00,
2013-01-10 18:18:00,33.0,22.9,30.68,West,271,0.0,1.5,66,0.00,,SKC,0.00,VWS V13.01,2013-01-10 23:18:00,
2013-01-10 18:23:00,33.0,23.2,30.68,ENE,68,0.0,0.0,67,0.00,,SKC,0.00,VWS V13.01,2013-01-10 23:23:00,
2013-01-10 18:29:00,33.0,23.2,30.68,ENE,68,0.0,0.0,67,0.00,,SKC,0.00,VWS V13.01,2013-01-10 23:29:00,
2013-01-10 18:34:00,33.0,23.2,30.69,NE,46,0.0,0.0,67,0.00,,SKC,0.00,VWS V13.01,2013-01-10 23:34:00,
2013-01-10 18:39:00,33.2,23.5,30.69,NE,46,0.0,0.0,67,0.00,,SKC,0.00,VWS V13.01,2013-01-10 23:39:00,
2013-01-10 18:44:00,33.0,23.2,30.69,ENE,68,0.0,0.0,67,0.00,,SKC,0.00,VWS V13.01,2013-01-10 23:44:00,
2013-01-10 18:49:00,33.0,23.2,30.69,NE,46,0.0,0.0,67,0.00,,SKC,0.00,VWS V13.01,2013-01-10 23:49:00,
2013-01-10 18:54:00,32.9,23.2,30.69,NNE,24,0.0,0.0,67,0.00,,SKC,0.00,VWS V13.01,2013-01-10 23:54:00,
2013-01-10 18:59:00,32.9,23.5,30.70,NE,46,0.0,0.0,68,0.00,,SKC,0.00,VWS V13.01,2013-01-10 23:59:00,
2013-01-10 19:04:00,32.7,23.3,30.69,NE,46,2.2,2.2,68,0.00,,SKC,0.00,VWS V13.01,2013-01-11 00:04:00,
2013-01-10 19:09:00,32.7,23.3,30.69,NE,46,1.7,1.7,68,0.00,,SKC,0.00,VWS V13.01,2013-01-11 00:09:00,
2013-01-10 19:14:00,32.7,23.3,30.70,NE,46,0.0,0.0,68,0.00,,SKC,0.00,VWS V13.01,2013-01-11 00:14:00,
2013-01-10 19:19:00,32.7,23.3,30.70,NE,46,0.0,0.0,68,0.00,,SKC,0.00,VWS V13.01,2013-01-11 00:19:00,
2013-01-10 19:24:00,32.5,23.1,30.69,ENE,68,0.0,0.0,68,0.00,,SKC,0.00,VWS V13.01,2013-01-11 00:24:00,
2013-01-10 19:29:00,32.3,22.6,30.70,ESE,114,0.0,0.0,67,0.00,,SKC,0.00,VWS V13.01,2013-01-11 00:29:00,
2013-01-10 19:34:00,32.1,22.4,30.70,ESE,114,0.0,0.0,67,0.00,,SKC,0.00,VWS V13.01,2013-01-11 00:34:00,
2013-01-10 19:39:00,31.8,22.5,30.70,ESE,114,0.0,0.0,68,0.00,,SKC,0.00,VWS V13.01,2013-01-11 00:39:00,
2013-01-10 19:44:00,31.6,22.3,30.70,ESE,114,0.0,0.0,68,0.00,,SKC,0.00,VWS V13.01,2013-01-11 00:44:00,
2013-01-10 19:49:00,31.2,21.9,30.70,ESE,114,0.0,0.0,68,0.00,,SKC,0.00,VWS V13.01,2013-01-11 00:49:00,
2013-01-10 19:54:00,30.9,21.6,30.70,ESE,114,0.0,0.0,68,0.00,,SKC,0.00,VWS V13.01,2013-01-11 00:54:00,
2013-01-10 19:59:00,30.7,21.4,30.70,ESE,114,0.0,0.0,68,0.00,,SKC,0.00,VWS V13.01,2013-01-11 00:59:00,
2013-01-10 20:04:00,30.7,21.8,30.70,ESE,114,0.0,0.0,69,0.00,,SKC,0.00,VWS V13.01,2013-01-11 01:04:00,
2013-01-10 20:09:00,30.7,21.8,30.70,ESE,114,0.0,0.0,69,0.00,,SKC,0.00,VWS V13.01,2013-01-11 01:09:00,
2013-01-10 20:14:00,30.3,21.4,30.70,ESE,114,0.0,0.0,69,0.00,,SKC,0.00,VWS V13.01,2013-01-11 01:14:00,
2013-01-10 20:19:00,30.0,21.1,30.70,ESE,114,0.0,0.0,69,0.00,,SKC,0.00,VWS V13.01,2013-01-11 01:19:00,
2013-01-10 20:24:00,30.0,21.1,30.70,ESE,114,0.0,0.0,69,0.00,,SKC,0.00,VWS V13.01,2013-01-11 01:24:00,
2013-01-10 20:29:00,29.6,20.7,30.70,ESE,114,0.0,0.0,69,0.00,,SKC,0.00,VWS V13.01,2013-01-11 01:29:00,
2013-01-10 20:34:00,29.3,20.4,30.70,ESE,114,0.0,0.0,69,0.00,,SKC,0.00,VWS V13.01,2013-01-11 01:34:00,
2013-01-10 20:39:00,29.1,20.5,30.70,ESE,114,0.0,0.0,70,0.00,,SKC,0.00,VWS V13.01,2013-01-11 01:39:00,
2013-01-10 20:44:00,28.7,20.2,30.70,ESE,114,0.0,0.0,70,0.00,,SKC,0.00,VWS V13.01,2013-01-11 01:44:00,
2013-01-10 20:49:00,28.2,19.7,30.71,ESE,114,0.0,0.0,70,0.00,,SKC,0.00,VWS V13.01,2013-01-11 01:49:00,
2013-01-10 20:54:00,28.0,19.5,30.71,ESE,114,0.0,0.0,70,0.00,,SKC,0.00,VWS V13.01,2013-01-11 01:54:00,
2013-01-10 20:59:00,27.6,19.1,30.71,ESE,114,0.0,0.0,70,0.00,,SKC,0.00,VWS V13.01,2013-01-11 01:59:00,
2013-01-10 21:04:00,27.5,19.0,30.71,ESE,114,0.0,0.0,70,0.00,,SKC,0.00,VWS V13.01,2013-01-11 02:04:00,
2013-01-10 21:09:00,27.3,18.8,30.71,ESE,114,0.0,0.0,70,0.00,,SKC,0.00,VWS V13.01,2013-01-11 02:09:00,
2013-01-10 21:14:00,27.1,19.0,30.70,ESE,114,0.0,0.0,71,0.00,,SKC,0.00,VWS V13.01,2013-01-11 02:14:00,
2013-01-10 21:19:00,27.1,19.0,30.71,ESE,114,0.0,0.0,71,0.00,,SKC,0.00,VWS V13.01,2013-01-11 02:19:00,
2013-01-10 21:24:00,26.9,18.8,30.71,ESE,114,0.0,0.0,71,0.00,,SKC,0.00,VWS V13.01,2013-01-11 02:24:00,
2013-01-10 21:29:00,26.7,18.6,30.71,ESE,114,0.0,0.0,71,0.00,,SKC,0.00,VWS V13.01,2013-01-11 02:29:00,
2013-01-10 21:34:00,26.7,18.6,30.71,ESE,114,0.0,0.0,71,0.00,,SKC,0.00,VWS V13.01,2013-01-11 02:34:00,
2013-01-10 21:39:00,26.4,18.6,30.71,ESE,114,0.0,0.0,72,0.00,,SKC,0.00,VWS V13.01,2013-01-11 02:39:00,
2013-01-10 21:44:00,26.4,18.6,30.70,ESE,114,0.0,0.0,72,0.00,,SKC,0.00,VWS V13.01,2013-01-11 02:44:00,
2013-01-10 21:49:00,26.0,18.2,30.70,ESE,114,0.0,0.0,72,0.00,,SKC,0.00,VWS V13.01,2013-01-11 02:49:00,
2013-01-10 21:54:00,25.7,17.9,30.70,ESE,114,0.0,0.0,72,0.00,,SKC,0.00,VWS V13.01,2013-01-11 02:54:00,
2013-01-10 21:59:00,25.1,17.4,30.70,ESE,114,0.0,0.0,72,0.00,,SKC,0.00,VWS V13.01,2013-01-11 02:59:00,
2013-01-10 22:04:00,24.9,17.2,30.70,ESE,114,0.0,0.0,72,0.00,,SKC,0.00,VWS V13.01,2013-01-11 03:04:00,
2013-01-10 22:09:00,24.6,16.9,30.70,ESE,114,0.0,0.0,72,0.00,,SKC,0.00,VWS V13.01,2013-01-11 03:09:00,
2013-01-10 22:14:00,24.6,17.2,30.70,ESE,114,0.0,0.0,73,0.00,,SKC,0.00,VWS V13.01,2013-01-11 03:14:00,
2013-01-10 22:19:00,24.4,17.0,30.70,ESE,114,0.0,0.0,73,0.00,,SKC,0.00,VWS V13.01,2013-01-11 03:19:00,
2013-01-10 22:24:00,24.4,17.0,30.70,ESE,114,0.0,0.0,73,0.00,,SKC,0.00,VWS V13.01,2013-01-11 03:24:00,
2013-01-10 22:29:00,24.6,17.2,30.70,ESE,114,0.0,0.0,73,0.00,,SKC,0.00,VWS V13.01,2013-01-11 03:29:00,
2013-01-10 22:34:00,24.6,17.2,30.69,ESE,114,0.0,0.0,73,0.00,,SKC,0.00,VWS V13.01,2013-01-11 03:34:00,
2013-01-10 22:39:00,24.6,17.2,30.70,ESE,114,0.0,0.0,73,0.00,,SKC,0.00,VWS V13.01,2013-01-11 03:39:00,
2013-01-10 22:44:00,24.6,17.5,30.69,ESE,114,0.0,0.0,74,0.00,,SKC,0.00,VWS V13.01,2013-01-11 03:44:00,
2013-01-10 22:49:00,24.6,17.5,30.69,ESE,114,0.0,0.0,74,0.00,,SKC,0.00,VWS V13.01,2013-01-11 03:49:00,
2013-01-10 22:54:00,24.6,17.5,30.69,ESE,114,0.0,0.0,74,0.00,,SKC,0.00,VWS V13.01,2013-01-11 03:54:00,
2013-01-10 22:59:00,24.6,17.5,30.69,ESE,114,0.0,0.0,74,0.00,,SKC,0.00,VWS V13.01,2013-01-11 03:59:00,
2013-01-10 23:04:00,24.6,17.5,30.69,ESE,114,0.0,0.0,74,0.00,,SKC,0.00,VWS V13.01,2013-01-11 04:04:00,
2013-01-10 23:09:00,24.6,17.8,30.70,ESE,114,0.0,0.0,75,0.00,,SKC,0.00,VWS V13.01,2013-01-11 04:09:00,
2013-01-10 23:14:00,24.6,17.8,30.70,ESE,114,0.0,0.0,75,0.00,,SKC,0.00,VWS V13.01,2013-01-11 04:14:00,
2013-01-10 23:19:00,24.4,17.6,30.70,ESE,114,0.0,0.0,75,0.00,,SKC,0.00,VWS V13.01,2013-01-11 04:19:00,
2013-01-10 23:24:00,24.4,17.6,30.70,ESE,114,0.0,0.0,75,0.00,,SKC,0.00,VWS V13.01,2013-01-11 04:24:00,
2013-01-10 23:29:00,24.0,17.2,30.70,ESE,114,0.0,0.0,75,0.00,,SKC,0.00,VWS V13.01,2013-01-11 04:29:00,
2013-01-10 23:34:00,23.9,17.1,30.70,ESE,114,0.0,0.0,75,0.00,,SKC,0.00,VWS V13.01,2013-01-11 04:34:00,
2013-01-10 23:39:00,23.9,17.1,30.69,ESE,114,0.0,0.0,75,0.00,,SKC,0.00,VWS V13.01,2013-01-11 04:39:00,
2013-01-10 23:44:00,23.7,17.0,30.70,ESE,114,0.0,0.0,75,0.00,,SKC,0.00,VWS V13.01,2013-01-11 04:44:00,
2013-01-10 23:49:00,23.7,17.0,30.70,ESE,114,0.0,0.0,75,0.00,,SKC,0.00,VWS V13.01,2013-01-11 04:49:00,
2013-01-10 23:54:00,23.5,16.8,30.70,ESE,114,0.0,0.0,75,0.00,,SKC,0.00,VWS V13.01,2013-01-11 04:54:00,
2013-01-10 23:59:00,23.5,16.8,30.71,ESE,114,0.0,0.0,75,0.00,,SKC,0.00,VWS V13.01,2013-01-11 04:59:00,